createdAt,value
2023-05-19T00:00:17.499Z,3.33
2023-05-19T00:02:44.145Z,3.24
2023-05-19T00:05:10.796Z,3.11
2023-05-19T00:07:37.353Z,3.32
2023-05-19T00:10:03.880Z,3.24
2023-05-19T00:12:30.422Z,3.36
2023-05-19T00:14:57.063Z,3.40
2023-05-19T00:17:23.669Z,3.45
2023-05-19T00:19:50.233Z,3.05
2023-05-19T00:22:16.918Z,3.07
2023-05-19T00:24:43.599Z,3.20
2023-05-19T00:27:10.128Z,3.04
2023-05-19T00:29:36.734Z,3.21
2023-05-19T00:32:03.394Z,3.22
2023-05-19T00:34:31.076Z,3.32
2023-05-19T00:36:57.609Z,3.23
2023-05-19T00:39:24.099Z,3.07
2023-05-19T00:41:50.815Z,3.18
2023-05-19T00:44:17.468Z,2.96
2023-05-19T00:46:44.090Z,3.13
2023-05-19T00:49:10.708Z,3.06
2023-05-19T00:51:37.235Z,2.96
2023-05-19T00:54:03.767Z,3.19
2023-05-19T00:56:30.350Z,3.24
2023-05-19T00:58:56.934Z,3.14
2023-05-19T01:01:23.516Z,3.18
2023-05-19T01:03:50.205Z,2.89
2023-05-19T01:06:16.744Z,3.15
2023-05-19T01:08:43.248Z,2.98
2023-05-19T01:11:09.903Z,3.06
2023-05-19T01:13:36.670Z,3.00
2023-05-19T01:16:03.432Z,2.84
2023-05-19T01:18:30.068Z,3.01
2023-05-19T01:20:56.613Z,2.85
2023-05-19T01:23:23.118Z,2.87
2023-05-19T01:25:49.672Z,3.18
2023-05-19T01:28:16.224Z,2.86
2023-05-19T01:30:42.755Z,2.94
2023-05-19T01:33:09.404Z,2.69
2023-05-19T01:35:35.971Z,2.85
2023-05-19T01:38:02.572Z,3.07
2023-05-19T01:40:29.289Z,3.06
2023-05-19T01:42:57.502Z,3.03
2023-05-19T01:45:24.260Z,3.14
2023-05-19T01:47:50.839Z,2.98
2023-05-19T01:50:17.381Z,2.90
2023-05-19T01:52:43.993Z,2.72
2023-05-19T01:55:10.546Z,2.97
2023-05-19T01:57:37.112Z,2.94
2023-05-19T02:00:03.645Z,2.93
2023-05-19T02:02:30.225Z,2.99
2023-05-19T02:04:56.781Z,2.81
2023-05-19T02:07:23.314Z,3.04
2023-05-19T02:09:49.897Z,2.90
2023-05-19T02:12:16.545Z,3.05
2023-05-19T02:14:43.150Z,3.03
2023-05-19T02:17:09.740Z,2.76
2023-05-19T02:19:36.251Z,2.93
2023-05-19T02:22:02.823Z,2.96
2023-05-19T02:24:29.419Z,2.73
2023-05-19T02:26:55.890Z,2.91
2023-05-19T02:29:22.577Z,2.86
2023-05-19T02:31:49.161Z,2.81
2023-05-19T02:34:15.750Z,2.86
2023-05-19T02:36:42.335Z,2.92
2023-05-19T02:39:08.903Z,2.83
2023-05-19T02:41:35.503Z,2.73
2023-05-19T02:44:02.152Z,2.80
2023-05-19T02:46:28.874Z,2.72
2023-05-19T02:48:55.379Z,2.86
2023-05-19T02:51:21.884Z,2.80
2023-05-19T02:53:48.538Z,2.87
2023-05-19T02:56:15.146Z,2.81
2023-05-19T02:58:41.788Z,2.81
2023-05-19T03:01:08.311Z,2.62
2023-05-19T03:03:35.036Z,2.81
2023-05-19T03:06:01.721Z,2.72
2023-05-19T03:08:28.269Z,2.74
2023-05-19T03:10:54.797Z,2.70
2023-05-19T03:13:21.380Z,2.80
2023-05-19T03:15:50.923Z,2.71
2023-05-19T03:18:17.528Z,2.60
2023-05-19T03:20:44.065Z,2.77
2023-05-19T03:23:12.775Z,2.84
2023-05-19T03:25:39.291Z,2.90
2023-05-19T03:28:05.870Z,2.81
2023-05-19T03:30:32.813Z,2.53
2023-05-19T03:32:59.634Z,2.81
2023-05-19T03:35:26.279Z,2.78
2023-05-19T03:37:52.809Z,2.59
2023-05-19T03:40:19.352Z,2.73
2023-05-19T03:42:45.955Z,2.60
2023-05-19T03:45:12.485Z,2.79
2023-05-19T03:47:39.095Z,2.76
2023-05-19T03:50:05.745Z,2.76
2023-05-19T03:52:32.351Z,2.78
2023-05-19T03:55:01.782Z,2.65
2023-05-19T03:57:28.372Z,2.72
2023-05-19T03:59:54.986Z,2.94
2023-05-19T04:02:21.660Z,2.86
2023-05-19T04:04:48.261Z,2.67
2023-05-19T04:07:14.811Z,2.72
2023-05-19T04:09:41.380Z,2.82
2023-05-19T04:12:07.913Z,2.75
2023-05-19T04:14:34.529Z,2.79
2023-05-19T04:17:01.129Z,2.59
2023-05-19T04:19:27.862Z,2.61
2023-05-19T04:21:54.627Z,2.76
2023-05-19T04:24:21.283Z,2.79
2023-05-19T04:26:48.889Z,2.74
2023-05-19T04:29:15.477Z,2.72
2023-05-19T04:31:42.156Z,2.46
2023-05-19T04:34:08.844Z,2.79
2023-05-19T04:36:35.418Z,2.49
2023-05-19T04:39:01.929Z,2.61
2023-05-19T04:41:28.464Z,2.75
2023-05-19T04:43:55.051Z,2.64
2023-05-19T04:46:21.629Z,2.92
2023-05-19T04:48:51.210Z,2.76
2023-05-19T04:51:17.805Z,2.61
2023-05-19T04:53:44.307Z,2.47
2023-05-19T04:56:10.772Z,2.65
2023-05-19T04:58:37.751Z,2.61
2023-05-19T05:01:05.251Z,2.69
2023-05-19T05:03:31.986Z,2.67
2023-05-19T05:05:58.558Z,2.53
2023-05-19T05:08:28.102Z,2.63
2023-05-19T05:10:57.428Z,2.86
2023-05-19T05:13:24.033Z,2.94
2023-05-19T05:15:50.639Z,3.15
2023-05-19T05:18:17.220Z,3.36
2023-05-19T05:20:43.736Z,3.18
2023-05-19T05:23:10.246Z,3.28
2023-05-19T05:25:36.874Z,3.25
2023-05-19T05:28:03.462Z,3.62
2023-05-19T05:30:30.038Z,3.50
2023-05-19T05:32:56.713Z,3.48
2023-05-19T05:35:23.365Z,3.51
2023-05-19T05:37:49.959Z,3.73
2023-05-19T05:40:16.478Z,3.77
2023-05-19T05:42:43.056Z,3.47
2023-05-19T05:45:09.650Z,3.35
2023-05-19T05:47:36.231Z,3.36
2023-05-19T05:50:02.814Z,3.41
2023-05-19T05:52:29.345Z,3.50
2023-05-19T05:54:55.845Z,3.72
2023-05-19T05:57:22.345Z,3.79
2023-05-19T05:59:48.806Z,3.49
2023-05-19T06:02:15.326Z,3.52
2023-05-19T06:04:41.962Z,3.65
2023-05-19T06:07:08.433Z,3.57
2023-05-19T06:09:34.955Z,3.77
2023-05-19T06:12:01.480Z,3.63
2023-05-19T06:14:27.965Z,3.59
2023-05-19T06:16:54.503Z,3.74
2023-05-19T06:19:21.187Z,3.20
2023-05-19T06:21:47.828Z,3.57
2023-05-19T06:24:14.428Z,3.36
2023-05-19T06:26:40.994Z,3.65
2023-05-19T06:29:07.526Z,3.69
2023-05-19T06:31:34.156Z,3.55
2023-05-19T06:34:00.736Z,3.51
2023-05-19T06:36:27.242Z,3.71
2023-05-19T06:38:53.697Z,3.54
2023-05-19T06:41:23.043Z,3.60
2023-05-19T06:43:49.644Z,3.57
2023-05-19T06:46:16.172Z,3.43
2023-05-19T06:48:42.708Z,3.55
2023-05-19T06:51:09.319Z,3.49
2023-05-19T06:53:35.813Z,3.31
2023-05-19T06:56:02.305Z,3.32
2023-05-19T06:58:28.849Z,3.33
2023-05-19T07:00:55.428Z,3.39
2023-05-19T07:03:21.987Z,3.60
2023-05-19T07:05:48.738Z,3.30
2023-05-19T07:08:15.239Z,3.17
2023-05-19T07:10:41.797Z,3.44
2023-05-19T07:13:08.302Z,3.70
2023-05-19T07:15:34.814Z,3.32
2023-05-19T07:18:01.319Z,3.23
2023-05-19T07:20:27.799Z,3.09
2023-05-19T07:22:54.253Z,3.35
2023-05-19T07:25:20.746Z,3.32
2023-05-19T07:27:47.264Z,3.48
2023-05-19T07:30:13.834Z,3.54
2023-05-19T07:32:40.475Z,3.57
2023-05-19T07:35:07.039Z,3.60
2023-05-19T07:37:33.555Z,3.89
2023-05-19T07:40:00.100Z,3.80
2023-05-19T07:42:26.773Z,5.07
2023-05-19T07:44:53.388Z,4.79
2023-05-19T07:47:20.574Z,4.65
2023-05-19T07:49:48.090Z,5.14
2023-05-19T07:52:15.719Z,5.10
2023-05-19T07:54:42.253Z,5.48
2023-05-19T07:57:10.181Z,5.56
2023-05-19T07:59:36.725Z,5.55
2023-05-19T08:02:03.305Z,5.80
2023-05-19T08:04:29.985Z,5.43
2023-05-19T08:06:56.547Z,5.56
2023-05-19T08:09:23.079Z,5.35
2023-05-19T08:11:52.454Z,5.34
2023-05-19T08:14:18.974Z,5.20
2023-05-19T08:16:45.462Z,5.35
2023-05-19T08:19:12.531Z,4.97
2023-05-19T08:21:39.179Z,5.03
2023-05-19T08:24:05.706Z,5.42
2023-05-19T08:26:32.267Z,5.25
2023-05-19T08:28:58.834Z,5.18
2023-05-19T08:31:25.517Z,5.61
2023-05-19T08:33:52.113Z,5.86
2023-05-19T08:36:18.613Z,6.45
2023-05-19T08:38:45.165Z,6.31
2023-05-19T08:41:11.705Z,6.25
2023-05-19T08:43:38.343Z,6.39
2023-05-19T08:46:04.829Z,6.36
2023-05-19T08:48:31.378Z,6.26
2023-05-19T08:50:57.930Z,6.43
2023-05-19T08:53:33.668Z,6.68
2023-05-19T08:56:00.815Z,6.55
2023-05-19T08:58:28.734Z,6.53
2023-05-19T09:00:55.488Z,5.88
2023-05-19T09:03:23.857Z,6.08
2023-05-19T09:05:50.893Z,5.61
2023-05-19T09:08:17.499Z,6.04
2023-05-19T09:10:44.074Z,5.79
2023-05-19T09:13:10.632Z,5.74
2023-05-19T09:15:37.171Z,5.78
2023-05-19T09:18:03.797Z,5.93
2023-05-19T09:20:30.377Z,5.52
2023-05-19T09:22:56.922Z,5.40
2023-05-19T09:25:23.504Z,5.75
2023-05-19T09:27:50.055Z,5.89
2023-05-19T09:30:16.652Z,5.72
2023-05-19T09:32:43.931Z,5.25
2023-05-19T09:35:10.674Z,5.09
2023-05-19T09:37:37.233Z,5.24
2023-05-19T09:40:03.821Z,5.43
2023-05-19T09:42:30.377Z,5.17
2023-05-19T09:44:56.892Z,4.58
2023-05-19T09:47:23.508Z,4.65
2023-05-19T09:49:50.071Z,4.85
2023-05-19T09:52:16.674Z,5.23
2023-05-19T09:54:43.199Z,4.96
2023-05-19T09:57:09.681Z,4.69
2023-05-19T09:59:36.175Z,4.91
2023-05-19T10:02:03.123Z,4.50
2023-05-19T10:04:29.946Z,4.60
2023-05-19T10:06:56.508Z,4.54
2023-05-19T10:09:23.072Z,5.60
2023-05-19T10:11:49.641Z,5.64
2023-05-19T10:14:16.146Z,6.07
2023-05-19T10:16:42.776Z,5.65
2023-05-19T10:19:09.410Z,6.34
2023-05-19T10:21:35.979Z,6.38
2023-05-19T10:24:02.505Z,6.68
2023-05-19T10:26:29.047Z,5.58
2023-05-19T10:28:55.599Z,5.07
2023-05-19T10:31:22.189Z,5.36
2023-05-19T10:33:48.764Z,5.17
2023-05-19T10:36:15.264Z,5.15
2023-05-19T10:38:41.838Z,5.27
2023-05-19T10:41:08.848Z,5.00
2023-05-19T10:43:35.442Z,5.07
2023-05-19T10:46:02.090Z,5.18
2023-05-19T10:48:28.634Z,4.91
2023-05-19T10:50:55.148Z,4.84
2023-05-19T10:53:21.684Z,4.90
2023-05-19T10:55:48.202Z,4.89
2023-05-19T10:58:14.780Z,5.07
2023-05-19T11:00:41.366Z,5.13
2023-05-19T11:03:07.953Z,4.80
2023-05-19T11:05:34.693Z,5.13
2023-05-19T11:08:01.417Z,4.83
2023-05-19T11:10:27.999Z,4.90
2023-05-19T11:12:54.539Z,4.83
2023-05-19T11:15:20.992Z,4.86
2023-05-19T11:17:47.518Z,4.87
2023-05-19T11:20:14.216Z,4.43
2023-05-19T11:22:40.733Z,4.49
2023-05-19T11:25:09.995Z,4.37
2023-05-19T11:27:36.568Z,4.59
2023-05-19T11:30:03.115Z,4.51
2023-05-19T11:32:29.788Z,4.45
2023-05-19T11:34:56.458Z,4.41
2023-05-19T11:37:22.939Z,4.36
2023-05-19T11:39:49.474Z,4.16
2023-05-19T11:42:15.982Z,4.26
2023-05-19T11:44:42.501Z,4.37
2023-05-19T11:47:09.058Z,4.62
2023-05-19T11:49:35.625Z,4.04
2023-05-19T11:52:02.173Z,4.13
2023-05-19T11:54:28.709Z,4.15
2023-05-19T11:56:55.761Z,3.98
2023-05-19T11:59:22.296Z,3.85
2023-05-19T12:01:48.816Z,3.83
2023-05-19T12:04:15.376Z,3.86
2023-05-19T12:06:41.971Z,3.91
2023-05-19T12:09:08.608Z,3.88
2023-05-19T12:11:35.173Z,4.14
2023-05-19T12:14:01.702Z,3.84
2023-05-19T12:16:28.229Z,4.08
2023-05-19T12:18:54.860Z,4.05
2023-05-19T12:21:21.453Z,3.92
2023-05-19T12:23:47.925Z,3.80
2023-05-19T12:26:14.456Z,3.82
2023-05-19T12:28:40.929Z,3.83
2023-05-19T12:31:07.481Z,3.82
2023-05-19T12:33:35.605Z,3.77
2023-05-19T12:36:02.523Z,4.10
2023-05-19T12:38:29.093Z,4.05
2023-05-19T12:40:55.673Z,3.91
2023-05-19T12:43:22.259Z,3.93
2023-05-19T12:45:48.929Z,3.76
2023-05-19T12:48:15.452Z,3.76
2023-05-19T12:50:42.124Z,4.06
2023-05-19T12:53:08.745Z,3.86
2023-05-19T12:55:35.250Z,3.96
2023-05-19T12:58:01.728Z,4.01
2023-05-19T13:00:28.664Z,3.84
2023-05-19T13:02:55.716Z,3.47
2023-05-19T13:05:22.388Z,3.76
2023-05-19T13:07:48.832Z,3.91
2023-05-19T13:10:15.284Z,3.75
2023-05-19T13:12:41.784Z,3.92
2023-05-19T13:15:08.361Z,3.85
2023-05-19T13:17:34.983Z,3.81
2023-05-19T13:20:01.493Z,3.65
2023-05-19T13:22:28.063Z,3.67
2023-05-19T13:24:54.569Z,3.65
2023-05-19T13:27:21.127Z,3.54
2023-05-19T13:29:47.680Z,3.42
2023-05-19T13:32:14.195Z,3.73
2023-05-19T13:34:40.911Z,3.73
2023-05-19T13:37:07.733Z,3.73
2023-05-19T13:39:34.895Z,3.53
2023-05-19T13:42:01.378Z,3.50
2023-05-19T13:44:27.837Z,3.43
2023-05-19T13:46:54.421Z,3.47
2023-05-19T13:49:20.926Z,3.59
2023-05-19T13:51:47.443Z,3.47
2023-05-19T13:54:14.019Z,3.55
2023-05-19T13:56:40.509Z,3.29
2023-05-19T13:59:07.019Z,3.52
2023-05-19T14:01:33.608Z,3.37
2023-05-19T14:04:00.993Z,3.38
2023-05-19T14:06:27.803Z,3.27
2023-05-19T14:08:54.340Z,3.38
2023-05-19T14:11:20.921Z,3.44
2023-05-19T14:13:47.416Z,3.53
2023-05-19T14:16:13.980Z,3.66
2023-05-19T14:18:40.665Z,3.73
2023-05-19T14:21:07.230Z,3.74
2023-05-19T14:23:33.778Z,3.46
2023-05-19T14:26:00.267Z,3.49
2023-05-19T14:28:26.842Z,3.51
2023-05-19T14:30:53.333Z,3.71
2023-05-19T14:33:19.825Z,3.66
2023-05-19T14:35:46.301Z,3.64
2023-05-19T14:38:12.841Z,3.75
2023-05-19T14:40:39.415Z,3.49
2023-05-19T14:43:05.939Z,3.80
2023-05-19T14:45:32.455Z,3.75
2023-05-19T14:47:59.024Z,3.60
2023-05-19T14:50:26.877Z,3.64
2023-05-19T14:52:54.340Z,3.45
2023-05-19T14:55:20.915Z,3.62
2023-05-19T14:57:47.477Z,3.52
2023-05-19T15:00:14.028Z,3.64
2023-05-19T15:02:40.624Z,3.46
2023-05-19T15:05:07.188Z,3.65
2023-05-19T15:07:33.745Z,3.66
2023-05-19T15:10:00.245Z,3.83
2023-05-19T15:12:26.753Z,3.38
2023-05-19T15:14:53.302Z,3.30
2023-05-19T15:17:19.851Z,3.53
2023-05-19T15:19:46.391Z,3.76
2023-05-19T15:22:12.875Z,3.47
2023-05-19T15:24:39.340Z,3.66
2023-05-19T15:27:05.873Z,3.54
2023-05-19T15:29:32.409Z,3.39
2023-05-19T15:31:58.935Z,3.65
2023-05-19T15:34:25.533Z,3.44
2023-05-19T15:36:52.100Z,3.66
2023-05-19T15:39:18.671Z,3.46
2023-05-19T15:41:45.213Z,4.04
2023-05-19T15:44:12.068Z,3.78
2023-05-19T15:46:38.619Z,3.78
2023-05-19T15:49:05.264Z,3.77
2023-05-19T15:51:33.045Z,3.95
2023-05-19T15:53:59.986Z,3.65
2023-05-19T15:56:26.507Z,3.74
2023-05-19T15:58:53.056Z,3.67
2023-05-19T16:01:20.206Z,3.86
2023-05-19T16:03:47.135Z,3.91
2023-05-19T16:06:13.821Z,3.80
2023-05-19T16:08:40.325Z,3.54
2023-05-19T16:11:06.834Z,4.08
2023-05-19T16:13:33.395Z,3.80
2023-05-19T16:16:00.001Z,3.86
2023-05-19T16:18:26.631Z,3.72
2023-05-19T16:20:53.178Z,3.94
2023-05-19T16:23:19.682Z,3.73
2023-05-19T16:25:46.175Z,3.59
2023-05-19T16:28:12.693Z,3.72
2023-05-19T16:30:39.161Z,3.63
2023-05-19T16:33:05.770Z,3.85
2023-05-19T16:35:32.437Z,3.54
2023-05-19T16:37:59.027Z,3.91
2023-05-19T16:40:25.602Z,4.27
2023-05-19T16:42:52.064Z,4.35
2023-05-19T16:45:18.582Z,4.61
2023-05-19T16:47:45.131Z,4.64
2023-05-19T16:50:11.681Z,4.70
2023-05-19T16:52:38.388Z,4.58
2023-05-19T16:55:04.888Z,5.05
2023-05-19T16:57:31.395Z,5.34
2023-05-19T16:59:57.977Z,4.78
2023-05-19T17:02:24.485Z,4.78
2023-05-19T17:04:51.119Z,4.62
2023-05-19T17:07:17.656Z,5.00
2023-05-19T17:09:44.154Z,4.52
2023-05-19T17:12:10.635Z,4.48
2023-05-19T17:14:37.204Z,4.13
2023-05-19T17:17:03.814Z,4.27
2023-05-19T17:19:30.413Z,4.31
2023-05-19T17:21:56.977Z,4.19
2023-05-19T17:24:23.523Z,4.06
2023-05-19T17:26:50.508Z,4.38
2023-05-19T17:29:17.333Z,4.54
2023-05-19T17:31:43.872Z,5.07
2023-05-19T17:34:10.476Z,4.57
2023-05-19T17:36:37.105Z,4.76
2023-05-19T17:39:03.610Z,4.73
2023-05-19T17:41:30.063Z,5.03
2023-05-19T17:43:56.569Z,5.57
2023-05-19T17:46:23.080Z,5.75
2023-05-19T17:48:49.570Z,5.89
2023-05-19T17:51:16.122Z,6.21
2023-05-19T17:53:42.709Z,6.06
2023-05-19T17:56:09.217Z,6.33
2023-05-19T17:58:35.768Z,6.55
2023-05-19T18:01:02.312Z,7.36
2023-05-19T18:03:29.127Z,19.37
2023-05-19T18:05:55.757Z,34.07
2023-05-19T18:08:22.308Z,26.98
2023-05-19T18:10:48.887Z,24.90
2023-05-19T18:13:15.384Z,28.01
2023-05-19T18:15:42.040Z,31.25
2023-05-19T18:18:08.624Z,31.90
2023-05-19T18:20:35.453Z,31.29
2023-05-19T18:23:02.436Z,30.17
2023-05-19T18:25:29.071Z,29.69
2023-05-19T18:27:55.713Z,28.40
2023-05-19T18:30:22.244Z,27.61
2023-05-19T18:32:48.828Z,27.15
2023-05-19T18:35:15.375Z,27.11
2023-05-19T18:37:41.877Z,27.25
2023-05-19T18:40:08.432Z,26.93
2023-05-19T18:42:35.047Z,26.81
2023-05-19T18:45:01.535Z,27.04
2023-05-19T18:47:28.074Z,26.49
2023-05-19T18:49:54.644Z,26.11
2023-05-19T18:52:21.259Z,26.72
2023-05-19T18:54:47.792Z,26.58
2023-05-19T18:57:14.301Z,25.65
2023-05-19T18:59:40.781Z,25.87
2023-05-19T19:02:07.467Z,25.71
2023-05-19T19:04:34.010Z,24.95
2023-05-19T19:07:00.547Z,25.15
2023-05-19T19:09:27.043Z,24.64
2023-05-19T19:11:53.599Z,24.06
2023-05-19T19:14:20.202Z,24.50
2023-05-19T19:16:46.794Z,24.25
2023-05-19T19:19:13.454Z,24.02
2023-05-19T19:21:40.118Z,23.73
2023-05-19T19:24:06.679Z,24.06
2023-05-19T19:26:33.198Z,23.60
2023-05-19T19:28:59.671Z,23.09
2023-05-19T19:31:26.291Z,22.41
2023-05-19T19:33:52.780Z,22.74
2023-05-19T19:36:19.343Z,22.43
2023-05-19T19:38:45.904Z,22.73
2023-05-19T19:41:12.431Z,22.65
2023-05-19T19:43:39.040Z,22.08
2023-05-19T19:46:05.611Z,22.61
2023-05-19T19:48:32.135Z,22.25
2023-05-19T19:50:58.723Z,21.20
2023-05-19T19:53:25.208Z,22.08
2023-05-19T19:55:51.763Z,21.49
2023-05-19T19:58:18.286Z,21.61
2023-05-19T20:00:44.852Z,21.37
2023-05-19T20:03:11.503Z,21.04
2023-05-19T20:05:38.006Z,20.80
2023-05-19T20:08:04.552Z,19.81
2023-05-19T20:10:31.128Z,19.87
2023-05-19T20:12:57.765Z,19.82
2023-05-19T20:15:24.341Z,19.27
2023-05-19T20:17:50.962Z,18.76
2023-05-19T20:20:17.571Z,17.32
2023-05-19T20:22:44.170Z,17.26
2023-05-19T20:25:10.766Z,17.14
2023-05-19T20:27:37.337Z,17.12
2023-05-19T20:30:03.983Z,17.18
2023-05-19T20:32:30.610Z,17.56
2023-05-19T20:34:57.180Z,17.60
2023-05-19T20:37:23.764Z,17.21
2023-05-19T20:39:50.372Z,17.06
2023-05-19T20:42:16.926Z,16.45
2023-05-19T20:44:43.649Z,17.24
2023-05-19T20:47:10.318Z,16.89
2023-05-19T20:49:36.933Z,17.04
2023-05-19T20:52:03.531Z,16.70
2023-05-19T20:54:30.123Z,16.10
2023-05-19T20:56:56.740Z,16.47
2023-05-19T20:59:23.337Z,16.30
2023-05-19T21:01:49.977Z,16.38
2023-05-19T21:04:16.587Z,16.78
2023-05-19T21:06:43.237Z,16.74
2023-05-19T21:09:09.885Z,16.55
2023-05-19T21:11:36.491Z,16.14
2023-05-19T21:14:03.124Z,16.36
2023-05-19T21:16:29.812Z,16.26
2023-05-19T21:18:56.483Z,16.20
2023-05-19T21:21:23.109Z,16.29
2023-05-19T21:23:49.688Z,15.69
2023-05-19T21:26:16.229Z,15.81
2023-05-19T21:28:42.738Z,15.50
2023-05-19T21:31:09.333Z,15.54
2023-05-19T21:33:35.927Z,16.35
2023-05-19T21:36:02.488Z,15.18
2023-05-19T21:38:29.134Z,15.69
2023-05-19T21:40:55.730Z,15.98
2023-05-19T21:43:22.330Z,15.64
2023-05-19T21:45:48.941Z,15.80
2023-05-19T21:48:15.538Z,15.50
2023-05-19T21:50:42.075Z,15.00
2023-05-19T21:53:08.582Z,14.58
2023-05-19T21:55:35.182Z,15.28
2023-05-19T21:58:02.723Z,14.65
2023-05-19T22:00:29.707Z,14.52
2023-05-19T22:02:56.534Z,14.80
2023-05-19T22:05:23.253Z,15.31
2023-05-19T22:07:49.866Z,14.81
2023-05-19T22:10:16.397Z,14.53
2023-05-19T22:12:42.921Z,15.13
2023-05-19T22:15:09.514Z,14.57
2023-05-19T22:17:36.102Z,14.70
2023-05-19T22:20:02.740Z,14.54
2023-05-19T22:22:29.288Z,14.90
2023-05-19T22:24:55.886Z,15.04
2023-05-19T22:27:22.423Z,13.96
2023-05-19T22:29:48.996Z,14.52
2023-05-19T22:32:15.607Z,14.15
2023-05-19T22:34:42.232Z,14.65
2023-05-19T22:37:08.839Z,14.78
2023-05-19T22:39:35.434Z,13.98
2023-05-19T22:42:01.964Z,14.20
2023-05-19T22:44:28.558Z,14.34
2023-05-19T22:46:55.100Z,13.88
2023-05-19T22:49:21.690Z,13.72
2023-05-19T22:51:48.267Z,13.70
2023-05-19T22:54:14.874Z,14.09
2023-05-19T22:56:41.878Z,14.03
2023-05-19T22:59:09.255Z,13.81
2023-05-19T23:01:35.831Z,13.49
2023-05-19T23:04:02.516Z,13.93
2023-05-19T23:06:29.144Z,13.65
2023-05-19T23:08:55.746Z,13.79
2023-05-19T23:11:22.336Z,13.15
2023-05-19T23:13:48.924Z,13.35
2023-05-19T23:16:15.436Z,13.39
2023-05-19T23:18:42.102Z,13.51
2023-05-19T23:21:08.669Z,13.23
2023-05-19T23:23:35.203Z,13.35
2023-05-19T23:26:01.812Z,13.59
2023-05-19T23:28:28.409Z,13.28
2023-05-19T23:30:55.047Z,12.67
2023-05-19T23:33:21.659Z,13.33
2023-05-19T23:35:48.222Z,13.18
2023-05-19T23:38:14.837Z,13.10
2023-05-19T23:40:41.392Z,13.19
2023-05-19T23:43:07.966Z,12.85
2023-05-19T23:45:34.693Z,12.59
2023-05-19T23:48:01.525Z,13.01
2023-05-19T23:50:28.195Z,12.71
2023-05-19T23:52:54.813Z,12.70
2023-05-19T23:55:21.399Z,12.93
2023-05-19T23:57:47.991Z,12.33
